createdAt,value
2024-01-15T00:00:06.067Z,99.60
2024-01-15T00:02:35.617Z,99.79
2024-01-15T00:05:52.890Z,99.76
2024-01-15T00:08:23.989Z,100.00
2024-01-15T00:10:52.562Z,99.58
2024-01-15T00:13:34.775Z,99.39
2024-01-15T00:16:08.246Z,100.00
2024-01-15T00:18:40.868Z,99.90
2024-01-15T00:21:23.475Z,99.42
2024-01-15T00:24:06.246Z,99.68
2024-01-15T00:26:37.363Z,99.46
2024-01-15T00:29:21.051Z,100.00
2024-01-15T00:31:55.788Z,100.00
2024-01-15T00:34:26.837Z,100.00
2024-01-15T00:36:55.074Z,100.00
2024-01-15T00:39:27.632Z,100.00
2024-01-15T00:41:58.320Z,100.00
2024-01-15T00:44:29.384Z,100.00
2024-01-15T00:46:57.009Z,100.00
2024-01-15T00:49:32.279Z,100.00
2024-01-15T00:52:00.635Z,100.00
2024-01-15T00:54:36.479Z,100.00
2024-01-15T00:57:16.346Z,100.00
2024-01-15T00:59:43.780Z,100.00
2024-01-15T01:02:14.602Z,99.84
2024-01-15T01:04:47.559Z,100.00
2024-01-15T01:07:18.650Z,99.30
2024-01-15T01:09:56.875Z,100.00
2024-01-15T01:12:26.540Z,100.00
2024-01-15T01:14:56.282Z,100.00
2024-01-15T01:17:42.541Z,100.00
2024-01-15T01:23:07.946Z,100.00
2024-01-15T01:25:39.425Z,100.00
2024-01-15T01:28:31.847Z,100.00
2024-01-15T01:31:06.298Z,100.00
2024-01-15T01:36:20.452Z,100.00
2024-01-15T01:39:12.109Z,100.00
2024-01-15T01:41:46.536Z,99.49
2024-01-15T01:44:17.423Z,100.00
2024-01-15T01:46:48.372Z,100.00
2024-01-15T01:49:16.168Z,100.00
2024-01-15T01:51:43.712Z,100.00
2024-01-15T01:54:25.204Z,100.00
2024-01-15T01:56:54.541Z,100.00
2024-01-15T01:59:23.819Z,100.00
2024-01-15T02:01:55.738Z,100.00
2024-01-15T02:04:41.056Z,100.00
2024-01-15T02:07:11.897Z,100.00
2024-01-15T02:09:48.000Z,100.00
2024-01-15T02:12:17.213Z,99.82
2024-01-15T02:14:47.116Z,100.00
2024-01-15T02:17:27.013Z,100.00
2024-01-15T02:19:56.326Z,100.00
2024-01-15T02:25:47.010Z,100.00
2024-01-15T02:28:32.917Z,100.00
2024-01-15T02:31:08.038Z,100.00
2024-01-15T02:33:37.035Z,99.28
2024-01-15T02:36:18.512Z,99.20
2024-01-15T02:38:50.345Z,98.89
2024-01-15T02:41:28.437Z,100.00
2024-01-15T02:44:00.784Z,100.00
2024-01-15T02:46:28.190Z,99.98
2024-01-15T02:49:08.053Z,100.00
2024-01-15T02:51:37.764Z,100.00
2024-01-15T02:54:06.938Z,100.00
2024-01-15T02:56:36.137Z,100.00
2024-01-15T02:59:08.675Z,99.93
2024-01-15T03:01:38.448Z,100.00
2024-01-15T03:04:06.197Z,100.00
2024-01-15T03:06:33.551Z,99.85
2024-01-15T03:12:15.286Z,99.76
2024-01-15T03:14:48.486Z,98.52
2024-01-15T03:17:19.740Z,100.00
2024-01-15T03:20:03.692Z,98.81
2024-01-15T03:22:38.259Z,99.13
2024-01-15T03:25:08.813Z,100.00
2024-01-15T03:27:41.906Z,99.80
2024-01-15T03:30:16.042Z,100.00
2024-01-15T03:32:43.232Z,97.40
2024-01-15T03:35:18.572Z,99.62
2024-01-15T03:37:49.678Z,97.03
2024-01-15T03:40:24.101Z,98.23
2024-01-15T03:45:32.262Z,97.63
2024-01-15T03:48:07.576Z,100.00
2024-01-15T03:50:43.836Z,99.04
2024-01-15T03:53:14.158Z,99.41
2024-01-15T03:55:47.963Z,98.64
2024-01-15T03:58:19.538Z,99.35
2024-01-15T04:01:02.898Z,98.80
2024-01-15T04:03:51.792Z,97.22
2024-01-15T04:06:18.978Z,98.96
2024-01-15T04:08:52.598Z,99.70
2024-01-15T04:11:42.328Z,99.08
2024-01-15T04:14:16.574Z,99.33
2024-01-15T04:16:49.168Z,100.00
2024-01-15T04:19:24.005Z,100.00
2024-01-15T04:21:53.033Z,100.00
2024-01-15T04:24:23.044Z,98.61
2024-01-15T04:29:34.640Z,99.45
2024-01-15T04:32:03.095Z,100.00
2024-01-15T04:34:37.873Z,97.77
2024-01-15T04:37:08.619Z,99.81
2024-01-15T04:39:39.697Z,100.00
2024-01-15T04:42:10.771Z,99.87
2024-01-15T04:44:49.046Z,99.82
2024-01-15T04:47:26.005Z,98.97
2024-01-15T04:49:56.813Z,100.00
2024-01-15T04:52:24.895Z,98.14
2024-01-15T04:55:05.722Z,97.92
2024-01-15T04:57:36.016Z,99.10
2024-01-15T05:00:13.827Z,99.20
2024-01-15T05:02:48.451Z,100.00
2024-01-15T05:05:23.519Z,99.77
2024-01-15T05:10:50.571Z,98.95
2024-01-15T05:13:18.472Z,99.66
2024-01-15T05:18:30.764Z,100.00
2024-01-15T05:20:59.805Z,99.73
2024-01-15T05:23:30.364Z,99.33
2024-01-15T05:25:57.785Z,100.00
2024-01-15T05:28:32.264Z,99.11
2024-01-15T05:31:05.394Z,99.74
2024-01-15T05:33:34.442Z,100.00
2024-01-15T05:36:02.359Z,99.64
2024-01-15T05:38:39.952Z,99.15
2024-01-15T05:41:09.168Z,99.65
2024-01-15T05:43:38.687Z,100.00
2024-01-15T05:46:19.172Z,100.00
2024-01-15T05:49:10.272Z,99.67
2024-01-15T05:51:40.395Z,98.38
2024-01-15T05:54:07.873Z,98.88
2024-01-15T05:56:42.155Z,98.88
2024-01-15T05:59:20.648Z,99.89
2024-01-15T06:01:58.873Z,100.00
2024-01-15T06:04:31.326Z,100.00
2024-01-15T06:07:06.018Z,100.00
2024-01-15T06:09:37.317Z,100.00
2024-01-15T06:12:06.280Z,100.00
2024-01-15T06:14:37.274Z,100.00
2024-01-15T06:17:07.903Z,98.64
2024-01-15T06:19:52.443Z,100.00
2024-01-15T06:22:23.238Z,100.00
2024-01-15T06:24:56.028Z,100.00
2024-01-15T06:27:29.471Z,99.39
2024-01-15T06:30:08.329Z,100.00
2024-01-15T06:32:45.278Z,100.00
2024-01-15T06:35:22.646Z,99.63
2024-01-15T06:37:58.183Z,99.44
2024-01-15T06:40:30.084Z,100.00
2024-01-15T06:43:22.685Z,98.78
2024-01-15T06:46:12.046Z,100.00
2024-01-15T06:51:26.276Z,99.09
2024-01-15T06:53:53.461Z,99.46
2024-01-15T06:59:01.209Z,99.74
2024-01-15T07:01:31.780Z,99.21
2024-01-15T07:04:03.734Z,100.00
2024-01-15T07:06:32.087Z,100.00
2024-01-15T07:09:30.083Z,100.00
2024-01-15T07:11:50.335Z,100.00
2024-01-15T07:14:19.152Z,100.00
2024-01-15T07:16:57.636Z,100.00
2024-01-15T07:19:31.311Z,100.00
2024-01-15T07:22:13.552Z,100.00
2024-01-15T07:25:01.925Z,100.00
2024-01-15T07:27:29.143Z,100.00
2024-01-15T07:30:07.160Z,100.00
2024-01-15T07:32:35.673Z,100.00
2024-01-15T07:35:07.183Z,100.00
2024-01-15T07:37:35.226Z,100.00
2024-01-15T07:46:14.359Z,100.00
2024-01-15T07:48:44.452Z,100.00
2024-01-15T07:51:12.623Z,100.00
2024-01-15T07:53:40.191Z,100.00
2024-01-15T07:56:11.723Z,100.00
2024-01-15T07:58:45.980Z,100.00
2024-01-15T08:01:18.887Z,100.00
2024-01-15T08:03:57.194Z,99.99
2024-01-15T08:06:35.390Z,100.00
2024-01-15T08:09:06.268Z,100.00
2024-01-15T08:11:33.466Z,100.00
2024-01-15T08:14:02.359Z,100.00
2024-01-15T08:16:30.429Z,100.00
2024-01-15T08:19:14.379Z,100.00
2024-01-15T08:21:49.167Z,100.00
2024-01-15T08:24:21.263Z,99.01
2024-01-15T08:29:39.956Z,99.80
2024-01-15T08:32:07.811Z,99.43
2024-01-15T08:34:53.860Z,98.87
2024-01-15T08:37:42.045Z,98.95
2024-01-15T08:40:10.168Z,98.68
2024-01-15T08:42:51.923Z,98.31
2024-01-15T08:45:24.299Z,98.53
2024-01-15T08:47:54.153Z,98.29
2024-01-15T08:50:21.613Z,98.87
2024-01-15T08:52:49.667Z,98.46
2024-01-15T08:55:19.452Z,98.98
2024-01-15T08:57:47.124Z,97.33
2024-01-15T09:00:16.951Z,95.52
2024-01-15T09:03:04.076Z,94.24
2024-01-15T09:05:42.414Z,92.12
2024-01-15T09:08:10.452Z,91.42
2024-01-15T09:10:44.976Z,91.01
2024-01-15T09:13:17.877Z,91.43
2024-01-15T09:15:47.630Z,93.45
2024-01-15T09:18:17.102Z,94.78
2024-01-15T09:20:58.790Z,93.50
2024-01-15T09:23:29.726Z,92.81
2024-01-15T09:26:07.707Z,94.22
2024-01-15T09:28:40.264Z,95.78
2024-01-15T09:31:09.798Z,94.37
2024-01-15T09:33:37.640Z,95.50
2024-01-15T09:36:10.970Z,95.29
2024-01-15T09:38:44.254Z,93.70
2024-01-15T09:41:11.818Z,94.71
2024-01-15T09:44:00.780Z,93.85
2024-01-15T09:52:11.926Z,93.92
2024-01-15T09:54:49.820Z,94.10
2024-01-15T09:57:20.493Z,94.22
2024-01-15T09:59:50.387Z,94.50
2024-01-15T10:02:31.846Z,93.92
2024-01-15T10:05:01.709Z,93.61
2024-01-15T10:08:02.505Z,94.93
2024-01-15T10:10:20.612Z,96.04
2024-01-15T10:12:50.158Z,97.20
2024-01-15T10:17:59.460Z,97.16
2024-01-15T10:20:51.911Z,96.73
2024-01-15T10:23:26.477Z,96.92
2024-01-15T10:25:54.192Z,95.24
2024-01-15T10:28:29.889Z,94.79
2024-01-15T10:31:02.494Z,95.96
2024-01-15T10:33:33.382Z,96.01
2024-01-15T10:36:11.319Z,95.67
2024-01-15T10:38:47.020Z,96.41
2024-01-15T10:41:14.423Z,96.92
2024-01-15T10:43:47.774Z,97.95
2024-01-15T10:46:20.681Z,98.13
2024-01-15T10:48:52.661Z,98.75
2024-01-15T10:51:27.638Z,99.47
2024-01-15T10:53:59.613Z,99.23
2024-01-15T10:56:49.822Z,99.66
2024-01-15T10:59:38.670Z,100.00
2024-01-15T11:04:50.374Z,100.00
2024-01-15T11:10:48.501Z,100.00
2024-01-15T11:13:53.090Z,100.00
2024-01-15T11:16:20.931Z,100.00
2024-01-15T11:19:20.374Z,100.00
2024-01-15T11:21:50.096Z,99.89
2024-01-15T11:24:57.343Z,99.74
2024-01-15T11:27:53.938Z,99.88
2024-01-15T11:30:30.484Z,99.54
2024-01-15T11:32:58.239Z,98.99
2024-01-15T11:35:52.088Z,99.52
2024-01-15T11:38:31.680Z,99.78
2024-01-15T11:41:03.539Z,99.85
2024-01-15T11:43:32.996Z,100.00
2024-01-15T11:46:07.050Z,100.00
2024-01-15T11:49:11.689Z,100.00
2024-01-15T11:51:55.775Z,100.00
2024-01-15T11:54:38.158Z,100.00
2024-01-15T11:57:16.439Z,100.00
2024-01-15T11:59:48.767Z,100.00
2024-01-15T12:02:24.094Z,100.00
2024-01-15T12:05:00.291Z,100.00
2024-01-15T12:07:56.019Z,100.00
2024-01-15T12:10:32.427Z,100.00
2024-01-15T12:13:37.110Z,100.00
2024-01-15T12:16:25.454Z,100.00
2024-01-15T12:19:07.898Z,99.71
2024-01-15T12:21:48.723Z,100.00
2024-01-15T12:24:20.957Z,99.38
2024-01-15T12:27:00.194Z,99.35
2024-01-15T12:29:31.034Z,99.75
2024-01-15T12:32:03.192Z,99.83
2024-01-15T12:34:46.206Z,100.00
2024-01-15T12:37:17.310Z,98.80
2024-01-15T12:39:52.951Z,97.89
2024-01-15T12:42:28.055Z,97.35
2024-01-15T12:45:08.873Z,97.28
2024-01-15T12:47:38.547Z,98.74
2024-01-15T12:50:20.086Z,97.13
2024-01-15T12:52:57.834Z,98.51
2024-01-15T12:55:30.587Z,98.25
2024-01-15T12:57:59.828Z,98.30
2024-01-15T13:00:27.857Z,99.13
2024-01-15T13:03:03.832Z,98.51
2024-01-15T13:05:54.098Z,97.59
2024-01-15T13:11:02.382Z,97.88
2024-01-15T13:13:39.011Z,98.11
2024-01-15T13:16:10.235Z,97.94
2024-01-15T13:18:41.066Z,98.67
2024-01-15T13:21:14.452Z,99.24
2024-01-15T13:23:42.976Z,97.67
2024-01-15T13:26:18.955Z,98.74
2024-01-15T13:28:46.693Z,96.02
2024-01-15T13:31:14.209Z,95.97
2024-01-15T13:33:48.059Z,95.77
2024-01-15T13:36:20.275Z,96.61
2024-01-15T13:38:59.115Z,97.94
2024-01-15T13:41:28.664Z,97.34
2024-01-15T13:43:59.697Z,96.82
2024-01-15T13:46:29.202Z,97.79
2024-01-15T13:49:01.161Z,98.47
2024-01-15T13:54:34.089Z,98.87
2024-01-15T13:57:16.585Z,96.53
2024-01-15T13:59:46.712Z,92.97
2024-01-15T14:02:24.980Z,93.61
2024-01-15T14:05:02.789Z,92.09
2024-01-15T14:07:34.477Z,92.10
2024-01-15T14:10:08.099Z,90.36
2024-01-15T14:12:52.351Z,88.24
2024-01-15T14:15:24.581Z,87.77
2024-01-15T14:18:09.181Z,92.58
2024-01-15T14:20:57.893Z,89.63
2024-01-15T14:23:43.181Z,92.60
2024-01-15T14:26:15.411Z,94.84
2024-01-15T14:28:44.536Z,95.43
2024-01-15T14:31:36.573Z,93.20
2024-01-15T14:34:15.121Z,94.39
2024-01-15T14:36:49.434Z,94.48
2024-01-15T14:42:13.891Z,95.00
2024-01-15T14:45:00.127Z,96.55
2024-01-15T14:47:28.610Z,95.61
2024-01-15T14:52:41.015Z,95.29
2024-01-15T14:55:11.249Z,94.35
2024-01-15T14:57:43.756Z,92.81
2024-01-15T15:00:13.738Z,92.80
2024-01-15T15:02:41.457Z,94.30
2024-01-15T15:05:22.312Z,94.44
2024-01-15T15:07:50.180Z,94.79
2024-01-15T15:10:21.986Z,94.09
2024-01-15T15:12:54.936Z,91.95
2024-01-15T15:15:26.165Z,92.06
2024-01-15T15:17:53.365Z,93.19
2024-01-15T15:20:38.629Z,95.00
2024-01-15T15:23:09.560Z,95.35
2024-01-15T15:25:44.986Z,95.42
2024-01-15T15:28:16.916Z,95.87
2024-01-15T15:30:44.317Z,95.89
2024-01-15T15:33:14.106Z,95.33
2024-01-15T15:35:42.380Z,94.69
2024-01-15T15:38:17.131Z,95.82
2024-01-15T15:40:47.613Z,95.70
2024-01-15T15:43:19.440Z,96.70
2024-01-15T15:45:57.341Z,98.21
2024-01-15T15:48:32.041Z,98.05
2024-01-15T15:51:04.032Z,97.39
2024-01-15T15:53:35.661Z,95.66
2024-01-15T15:58:58.107Z,97.21
2024-01-15T16:01:25.984Z,99.13
2024-01-15T16:03:54.686Z,99.64
2024-01-15T16:06:32.447Z,99.28
2024-01-15T16:09:21.669Z,99.60
2024-01-15T16:11:51.020Z,100.00
2024-01-15T16:14:23.839Z,100.00
2024-01-15T16:23:15.498Z,100.00
2024-01-15T16:23:30.262Z,100.00
2024-01-15T16:24:02.354Z,100.00
2024-01-15T16:29:04.712Z,100.00
2024-01-15T16:31:54.284Z,100.00
2024-01-15T16:34:24.320Z,100.00
2024-01-15T16:36:54.733Z,100.00
2024-01-15T16:39:36.187Z,100.00
2024-01-15T16:44:46.750Z,100.00
2024-01-15T16:47:13.981Z,100.00
2024-01-15T16:49:50.508Z,100.00
2024-01-15T16:52:27.295Z,100.00
2024-01-15T16:54:55.933Z,100.00
2024-01-15T16:57:26.915Z,100.00
2024-01-15T16:59:56.942Z,100.00
2024-01-15T17:02:26.516Z,100.00
2024-01-15T17:04:57.098Z,100.00
2024-01-15T17:07:29.568Z,100.00
2024-01-15T17:10:01.554Z,100.00
2024-01-15T17:12:36.761Z,100.00
2024-01-15T17:15:09.417Z,100.00
2024-01-15T17:17:42.263Z,100.00
2024-01-15T17:20:23.721Z,100.00
2024-01-15T17:22:58.362Z,100.00
2024-01-15T17:25:30.254Z,100.00
2024-01-15T17:28:05.323Z,100.00
2024-01-15T17:30:38.186Z,100.00
2024-01-15T17:33:08.341Z,100.00
2024-01-15T17:35:46.765Z,100.00
2024-01-15T17:38:22.270Z,100.00
2024-01-15T17:40:53.797Z,100.00
2024-01-15T17:43:28.200Z,100.00
2024-01-15T17:46:02.094Z,100.00
2024-01-15T17:48:38.922Z,100.00
2024-01-15T17:51:08.431Z,100.00
2024-01-15T17:53:37.419Z,100.00
2024-01-15T17:56:13.143Z,100.00
2024-01-15T17:58:48.747Z,100.00
2024-01-15T18:01:19.610Z,100.00
2024-01-15T18:03:48.860Z,100.00
2024-01-15T18:06:17.437Z,100.00
2024-01-15T18:08:47.870Z,100.00
2024-01-15T18:11:20.678Z,100.00
2024-01-15T18:13:53.140Z,100.00
2024-01-15T18:16:35.338Z,100.00
2024-01-15T18:19:08.750Z,100.00
2024-01-15T18:21:43.367Z,100.00
2024-01-15T18:24:28.901Z,100.00
2024-01-15T18:26:57.674Z,100.00
2024-01-15T18:29:32.683Z,100.00
2024-01-15T18:32:10.707Z,100.00
2024-01-15T18:34:39.168Z,100.00
2024-01-15T18:37:13.731Z,100.00
2024-01-15T18:40:12.846Z,100.00
2024-01-15T18:42:46.628Z,100.00
2024-01-15T18:45:38.210Z,100.00
2024-01-15T18:48:08.913Z,100.00
2024-01-15T18:50:37.976Z,100.00
2024-01-15T18:53:15.980Z,100.00
2024-01-15T18:55:45.026Z,100.00
2024-01-15T18:58:20.569Z,100.00
2024-01-15T19:00:53.762Z,100.00
2024-01-15T19:03:30.982Z,100.00
2024-01-15T19:06:10.051Z,100.00
2024-01-15T19:08:37.371Z,100.00
2024-01-15T19:11:04.993Z,100.00
2024-01-15T19:16:16.415Z,100.00
2024-01-15T19:18:54.438Z,100.00
2024-01-15T19:21:29.880Z,100.00
2024-01-15T19:24:23.975Z,100.00
2024-01-15T19:26:57.436Z,100.00
2024-01-15T19:29:30.603Z,100.00
2024-01-15T19:32:00.052Z,100.00
2024-01-15T19:34:28.938Z,100.00
2024-01-15T19:36:57.445Z,100.00
2024-01-15T19:39:29.794Z,100.00
2024-01-15T19:42:06.286Z,100.00
2024-01-15T19:44:56.646Z,100.00
2024-01-15T19:47:27.962Z,100.00
2024-01-15T19:49:57.069Z,100.00
2024-01-15T19:52:29.082Z,100.00
2024-01-15T19:55:00.781Z,100.00
2024-01-15T19:57:28.856Z,100.00
2024-01-15T19:59:59.649Z,100.00
2024-01-15T20:02:35.137Z,100.00
2024-01-15T20:05:15.157Z,100.00
2024-01-15T20:07:43.513Z,100.00
2024-01-15T20:10:23.359Z,100.00
2024-01-15T20:15:32.519Z,100.00
2024-01-15T20:18:11.985Z,100.00
2024-01-15T20:20:49.948Z,100.00
2024-01-15T20:23:19.422Z,100.00
2024-01-15T20:25:50.607Z,100.00
2024-01-15T20:28:17.996Z,100.00
2024-01-15T20:30:45.740Z,100.00
2024-01-15T20:38:41.635Z,100.00
2024-01-15T20:41:35.494Z,100.00
2024-01-15T20:44:08.389Z,100.00
2024-01-15T20:46:38.661Z,100.00
2024-01-15T20:49:14.449Z,100.00
2024-01-15T20:51:49.448Z,100.00
2024-01-15T20:54:18.964Z,100.00
2024-01-15T20:56:48.344Z,100.00
2024-01-15T20:59:20.903Z,100.00
2024-01-15T21:04:32.731Z,100.00
2024-01-15T21:07:01.330Z,100.00
2024-01-15T21:09:30.536Z,100.00
2024-01-15T21:11:57.713Z,100.00
2024-01-15T21:14:26.662Z,100.00
2024-01-15T21:17:03.237Z,100.00
2024-01-15T21:22:12.125Z,100.00
2024-01-15T21:24:41.624Z,100.00
2024-01-15T21:27:13.131Z,100.00
2024-01-15T21:29:44.765Z,100.00
2024-01-15T21:32:12.603Z,100.00
2024-01-15T21:35:03.600Z,100.00
2024-01-15T21:40:44.870Z,100.00
2024-01-15T21:43:08.996Z,100.00
2024-01-15T21:45:37.682Z,100.00
2024-01-15T21:48:29.689Z,100.00
2024-01-15T21:50:59.324Z,100.00
2024-01-15T21:53:31.438Z,100.00
2024-01-15T21:56:03.831Z,100.00
2024-01-15T21:58:40.584Z,100.00
2024-01-15T22:01:09.965Z,100.00
2024-01-15T22:03:46.946Z,100.00
2024-01-15T22:06:19.147Z,100.00
2024-01-15T22:08:52.652Z,100.00
2024-01-15T22:11:38.646Z,100.00
2024-01-15T22:16:51.486Z,100.00
2024-01-15T22:19:25.928Z,100.00
2024-01-15T22:21:58.493Z,100.00
2024-01-15T22:24:28.180Z,100.00
2024-01-15T22:27:23.262Z,100.00
2024-01-15T22:29:58.248Z,100.00
2024-01-15T22:32:32.670Z,100.00
2024-01-15T22:35:04.627Z,100.00
2024-01-15T22:37:39.091Z,100.00
2024-01-15T22:40:21.885Z,100.00
2024-01-15T22:43:00.549Z,100.00
2024-01-15T22:45:32.635Z,100.00
2024-01-15T22:48:00.876Z,100.00
2024-01-15T22:50:35.253Z,100.00
2024-01-15T22:53:17.506Z,100.00
2024-01-15T22:55:44.998Z,100.00
2024-01-15T22:58:24.312Z,100.00
2024-01-15T23:00:53.620Z,100.00
2024-01-15T23:03:20.964Z,100.00
2024-01-15T23:05:58.623Z,100.00
2024-01-15T23:08:31.328Z,100.00
2024-01-15T23:11:02.275Z,100.00
2024-01-15T23:13:29.541Z,100.00
2024-01-15T23:15:56.700Z,100.00
2024-01-15T23:18:48.012Z,100.00
2024-01-15T23:21:15.300Z,100.00
2024-01-15T23:23:43.310Z,100.00
2024-01-15T23:26:17.544Z,100.00
2024-01-15T23:28:51.355Z,100.00
2024-01-15T23:31:23.310Z,100.00
2024-01-15T23:33:53.626Z,100.00
2024-01-15T23:36:20.975Z,100.00
2024-01-15T23:38:51.921Z,100.00
2024-01-15T23:41:22.793Z,100.00
2024-01-15T23:43:55.640Z,100.00
2024-01-15T23:46:26.169Z,100.00
2024-01-15T23:49:02.394Z,100.00
2024-01-15T23:51:43.615Z,100.00
2024-01-15T23:54:19.997Z,100.00
2024-01-15T23:56:50.639Z,100.00
2024-01-15T23:59:31.364Z,100.00
